MSC Cordoba — A8OF8 — position and weather

sailwx.info

Track history (hours):
 
Tides and Currents Weather Stations Pressure Air Temp Water Temp Dewpoint Dewpoint Depression Visibility Wind Speed Wind Dir Waves Ship Positions

MSC Cordoba

Last reported at 2016-Apr-25 06:00 UTC. Time now 2016-May-01 08:01 UTC.
Position N 13°18' W 094°06'.

Length 274 m; draft 9.3 m.

Type: Ship (hazmat cat A). MMSI: 636091473.

Wind from 310 at 9 knots

Waves 0.5 meters (2 feet), 3 second period

Barometer 1012.1 mb
Air temperature 30.0 ° C
Visibility: greater than 10.8 NM
Dewpoint 30.0 ° C
Water temperature 31.0 ° C

Date/timePositionNaut miles runAvg speedWind from/ knotsBaromVisibWave heightAir tempDewpointWater temp
2016-Apr-25 06:00N 13°18' W 094°06'39214.3 310 / 91012.110.8 0.530.030.031.0
2016-Apr-24 02:31N 16°21' W 100°04'360 8.1
2016-Apr-22 06:00N 19°24' W 105°30'   350 / 161013.510.8 0.526.026.025.0
2016-Apr-19 16:33N 31°05' W 118°47'1615.9
2016-Apr-19 15:33N 31°18' W 118°58'1616.0
2016-Apr-19 14:33N 31°31' W 119°08'1615.7
2016-Apr-19 13:33N 31°44' W 119°19'1716.0
2016-Apr-19 12:29N 31°58' W 119°30'1716.2
2016-Apr-19 11:25N 32°12' W 119°42'1517.0
2016-Apr-19 10:33N 32°24' W 119°53'1616.4
2016-Apr-19 09:33N 32°38' W 120°03'1616.0
2016-Apr-19 08:33N 32°51' W 120°14'1615.8
2016-Apr-19 07:33N 33°04' W 120°25'1616.1
2016-Apr-19 06:34N 33°17' W 120°35'3916.2
2016-Apr-19 04:10N 33°49' W 121°02'1016.5
2016-Apr-19 03:33N 33°57' W 121°09'1615.9
2016-Apr-19 02:33N 34°11' W 121°18'1616.2
2016-Apr-19 01:33N 34°26' W 121°25'1615.9
2016-Apr-19 00:33N 34°41' W 121°32'1615.7
2016-Apr-18 23:33N 34°56' W 121°39'1615.8
2016-Apr-18 22:33N 35°11' W 121°46'1616.1
2016-Apr-18 21:33N 35°25' W 121°54'1616.1
2016-Apr-18 20:33N 35°40' W 122°01'1616.3
2016-Apr-18 19:33N 35°56' W 122°08'1616.2
2016-Apr-18 18:33N 36°11' W 122°16'1616.4
2016-Apr-18 17:33N 36°26' W 122°24'1616.1
2016-Apr-18 16:33N 36°41' W 122°31'1616.2
2016-Apr-18 15:33N 36°56' W 122°38'1616.0
2016-Apr-18 14:33N 37°11' W 122°44'1615.8
2016-Apr-18 13:34N 37°27' W 122°44'1615.8
2016-Apr-18 12:33N 37°43' W 122°42'1414.3
2016-Apr-18 11:33N 37°50' W 122°27'8 8.1
2016-Apr-18 10:33N 37°48' W 122°17'1 0.9
2016-Apr-18 09:32N 37°48' W 122°19'0 0.0
2016-Apr-18 08:32N 37°48' W 122°19'0 0.0
2016-Apr-18 07:32N 37°48' W 122°19'0 0.0
2016-Apr-18 06:31N 37°48' W 122°19'0 0.0
2016-Apr-18 05:31N 37°48' W 122°19'0 0.0
2016-Apr-18 04:33N 37°48' W 122°19'0 0.0
2016-Apr-18 03:30N 37°48' W 122°19'0 0.0
2016-Apr-18 02:32N 37°48' W 122°19'0 0.0
2016-Apr-18 01:32N 37°48' W 122°19'0 0.0
2016-Apr-18 00:32N 37°48' W 122°19'0 0.2
2016-Apr-17 23:33N 37°48' W 122°19'5 5.0
2016-Apr-17 22:33N 37°49' W 122°25'8 7.5
2016-Apr-17 21:34N 37°47' W 122°34'8 8.3
2016-Apr-17 20:33N 37°40' W 122°40'7 7.3
2016-Apr-17 19:32N 37°33' W 122°39'10 9.7
2016-Apr-17 18:33N 37°23' W 122°39'10 9.9
2016-Apr-17 17:33N 37°13' W 122°37'1110.7
2016-Apr-17 16:33N 37°03' W 122°32'4411.0
2016-Apr-17 12:33N 36°22' W 122°12'1211.5
2016-Apr-17 11:33N 36°12' W 122°05'1111.5
2016-Apr-17 10:33N 36°02' W 121°58'1111.3
2016-Apr-17 09:33N 35°53' W 121°51'1211.6
2016-Apr-17 08:33N 35°43' W 121°44'1711.8
2016-Apr-17 07:09N 35°28' W 121°34'711.8
2016-Apr-17 06:33N 35°22' W 121°30'1119.7
2016-Apr-17 06:00N 35°12' W 121°24'1 2.0 340 / 121020.210.8 0.514.9 8.817.0
2016-Apr-17 05:33N 35°12' W 121°23'1211.6
2016-Apr-17 04:33N 35°02' W 121°16'1211.9
2016-Apr-17 03:33N 34°51' W 121°09'1211.9
2016-Apr-17 02:33N 34°41' W 121°02'1010.4
2016-Apr-17 01:33N 34°32' W 120°56'10 9.6
2016-Apr-17 00:33N 34°25' W 120°47'1111.1
2016-Apr-16 23:33N 34°22' W 120°34'6712.0
2016-Apr-16 18:00N 34°00' W 119°18'5710.5 330 / 151019.010.8 0.525.4 7.519.0
2016-Apr-16 12:33N 33°39' W 118°15'7 5.1
2016-Apr-16 11:14N 33°45' W 118°14'0 0.0
2016-Apr-16 10:22N 33°45' W 118°14'0 0.0
2016-Apr-16 09:25N 33°45' W 118°14'0 0.0
2016-Apr-16 08:33N 33°45' W 118°14'0 0.0
2016-Apr-16 07:33N 33°45' W 118°14'0 0.0
2016-Apr-16 06:33N 33°45' W 118°14'0 0.0
2016-Apr-16 05:32N 33°45' W 118°14'0 0.0
2016-Apr-16 04:32N 33°45' W 118°14'0 0.0
2016-Apr-16 03:28N 33°45' W 118°14'0 0.0
2016-Apr-16 02:28N 33°45' W 118°14'0 0.0
2016-Apr-16 01:33N 33°45' W 118°14'0 0.0
2016-Apr-16 00:33N 33°45' W 118°14'0 0.0
2016-Apr-15 23:33N 33°45' W 118°14'0 0.0
2016-Apr-15 22:23N 33°45' W 118°14'0 0.0
2016-Apr-15 21:29N 33°45' W 118°14'0 0.0
2016-Apr-15 16:30N 33°45' W 118°14'0 0.0
2016-Apr-15 15:26N 33°45' W 118°14'0 0.0
2016-Apr-15 14:29N 33°45' W 118°14'0 0.0
2016-Apr-15 13:04N 33°45' W 118°14'0 0.0
2016-Apr-15 12:33N 33°45' W 118°14'3 2.7
2016-Apr-15 11:33N 33°44' W 118°11'9 6.8
2016-Apr-15 10:18N 33°35' W 118°10'29 9.9
2016-Apr-15 07:24N 33°08' W 117°58'910.4
2016-Apr-15 06:33N 32°60' W 117°54'  
Track history (hours):
 
Tides and Currents Weather Stations Pressure Air Temp Water Temp Dewpoint Dewpoint Depression Visibility Wind Speed Wind Dir Waves Ship Positions

MSC Cordoba

Last reported at 2016-Apr-25 06:00 UTC. Time now 2016-May-01 08:01 UTC.
Position N 13°18' W 094°06'.

Length 274 m; draft 9.3 m.

Type: Ship (hazmat cat A). MMSI: 636091473.

Wind from 310 at 9 knots

Waves 0.5 meters (2 feet), 3 second period

Barometer 1012.1 mb
Air temperature 30.0 ° C
Visibility: greater than 10.8 NM
Dewpoint 30.0 ° C
Water temperature 31.0 ° C

Date/timePositionNaut miles runAvg speedWind from/ knotsBaromVisibWave heightAir tempDewpointWater temp
2016-Apr-25 06:00N 13°18' W 094°06'39214.3 310 / 91012.110.8 0.530.030.031.0
2016-Apr-24 02:31N 16°21' W 100°04'360 8.1
2016-Apr-22 06:00N 19°24' W 105°30'   350 / 161013.510.8 0.526.026.025.0
2016-Apr-19 16:33N 31°05' W 118°47'1615.9
2016-Apr-19 15:33N 31°18' W 118°58'1616.0
2016-Apr-19 14:33N 31°31' W 119°08'1615.7
2016-Apr-19 13:33N 31°44' W 119°19'1716.0
2016-Apr-19 12:29N 31°58' W 119°30'1716.2
2016-Apr-19 11:25N 32°12' W 119°42'1517.0
2016-Apr-19 10:33N 32°24' W 119°53'1616.4
2016-Apr-19 09:33N 32°38' W 120°03'1616.0
2016-Apr-19 08:33N 32°51' W 120°14'1615.8
2016-Apr-19 07:33N 33°04' W 120°25'1616.1
2016-Apr-19 06:34N 33°17' W 120°35'3916.2
2016-Apr-19 04:10N 33°49' W 121°02'1016.5
2016-Apr-19 03:33N 33°57' W 121°09'1615.9
2016-Apr-19 02:33N 34°11' W 121°18'1616.2
2016-Apr-19 01:33N 34°26' W 121°25'1615.9
2016-Apr-19 00:33N 34°41' W 121°32'1615.7
2016-Apr-18 23:33N 34°56' W 121°39'1615.8
2016-Apr-18 22:33N 35°11' W 121°46'1616.1
2016-Apr-18 21:33N 35°25' W 121°54'1616.1
2016-Apr-18 20:33N 35°40' W 122°01'1616.3
2016-Apr-18 19:33N 35°56' W 122°08'1616.2
2016-Apr-18 18:33N 36°11' W 122°16'1616.4
2016-Apr-18 17:33N 36°26' W 122°24'1616.1
2016-Apr-18 16:33N 36°41' W 122°31'1616.2
2016-Apr-18 15:33N 36°56' W 122°38'1616.0
2016-Apr-18 14:33N 37°11' W 122°44'1615.8
2016-Apr-18 13:34N 37°27' W 122°44'1615.8
2016-Apr-18 12:33N 37°43' W 122°42'1414.3
2016-Apr-18 11:33N 37°50' W 122°27'8 8.1
2016-Apr-18 10:33N 37°48' W 122°17'1 0.9
2016-Apr-18 09:32N 37°48' W 122°19'0 0.0
2016-Apr-18 08:32N 37°48' W 122°19'0 0.0
2016-Apr-18 07:32N 37°48' W 122°19'0 0.0
2016-Apr-18 06:31N 37°48' W 122°19'0 0.0
2016-Apr-18 05:31N 37°48' W 122°19'0 0.0
2016-Apr-18 04:33N 37°48' W 122°19'0 0.0
2016-Apr-18 03:30N 37°48' W 122°19'0 0.0
2016-Apr-18 02:32N 37°48' W 122°19'0 0.0
2016-Apr-18 01:32N 37°48' W 122°19'0 0.0
2016-Apr-18 00:32N 37°48' W 122°19'0 0.2
2016-Apr-17 23:33N 37°48' W 122°19'5 5.0
2016-Apr-17 22:33N 37°49' W 122°25'8 7.5
2016-Apr-17 21:34N 37°47' W 122°34'8 8.3
2016-Apr-17 20:33N 37°40' W 122°40'7 7.3
2016-Apr-17 19:32N 37°33' W 122°39'10 9.7
2016-Apr-17 18:33N 37°23' W 122°39'10 9.9
2016-Apr-17 17:33N 37°13' W 122°37'1110.7
2016-Apr-17 16:33N 37°03' W 122°32'4411.0
2016-Apr-17 12:33N 36°22' W 122°12'1211.5
2016-Apr-17 11:33N 36°12' W 122°05'1111.5
2016-Apr-17 10:33N 36°02' W 121°58'1111.3
2016-Apr-17 09:33N 35°53' W 121°51'1211.6
2016-Apr-17 08:33N 35°43' W 121°44'1711.8
2016-Apr-17 07:09N 35°28' W 121°34'711.8
2016-Apr-17 06:33N 35°22' W 121°30'1119.7
2016-Apr-17 06:00N 35°12' W 121°24'1 2.0 340 / 121020.210.8 0.514.9 8.817.0
2016-Apr-17 05:33N 35°12' W 121°23'1211.6
2016-Apr-17 04:33N 35°02' W 121°16'1211.9
2016-Apr-17 03:33N 34°51' W 121°09'1211.9
2016-Apr-17 02:33N 34°41' W 121°02'1010.4
2016-Apr-17 01:33N 34°32' W 120°56'10 9.6
2016-Apr-17 00:33N 34°25' W 120°47'1111.1
2016-Apr-16 23:33N 34°22' W 120°34'6712.0
2016-Apr-16 18:00N 34°00' W 119°18'5710.5 330 / 151019.010.8 0.525.4 7.519.0
2016-Apr-16 12:33N 33°39' W 118°15'7 5.1
2016-Apr-16 11:14N 33°45' W 118°14'0 0.0
2016-Apr-16 10:22N 33°45' W 118°14'0 0.0
2016-Apr-16 09:25N 33°45' W 118°14'0 0.0
2016-Apr-16 08:33N 33°45' W 118°14'0 0.0
2016-Apr-16 07:33N 33°45' W 118°14'0 0.0
2016-Apr-16 06:33N 33°45' W 118°14'0 0.0
2016-Apr-16 05:32N 33°45' W 118°14'0 0.0
2016-Apr-16 04:32N 33°45' W 118°14'0 0.0
2016-Apr-16 03:28N 33°45' W 118°14'0 0.0
2016-Apr-16 02:28N 33°45' W 118°14'0 0.0
2016-Apr-16 01:33N 33°45' W 118°14'0 0.0
2016-Apr-16 00:33N 33°45' W 118°14'0 0.0
2016-Apr-15 23:33N 33°45' W 118°14'0 0.0
2016-Apr-15 22:23N 33°45' W 118°14'0 0.0
2016-Apr-15 21:29N 33°45' W 118°14'0 0.0
2016-Apr-15 16:30N 33°45' W 118°14'0 0.0
2016-Apr-15 15:26N 33°45' W 118°14'0 0.0
2016-Apr-15 14:29N 33°45' W 118°14'0 0.0
2016-Apr-15 13:04N 33°45' W 118°14'0 0.0
2016-Apr-15 12:33N 33°45' W 118°14'3 2.7
2016-Apr-15 11:33N 33°44' W 118°11'9 6.8
2016-Apr-15 10:18N 33°35' W 118°10'29 9.9
2016-Apr-15 07:24N 33°08' W 117°58'910.4
2016-Apr-15 06:33N 32°60' W 117°54'  

Dump ship's entire track history